F/V Moorea — FMIT — position and weather

sailwx.info

Track history (hours):
 
Tides and Currents Weather Stations Pressure Air Temp Water Temp Dewpoint Dewpoint Depression Visibility Wind Speed Wind Dir Waves Ship Positions

F/V Moorea

Last reported at 2017-Feb-22 07:33 UTC. Time now 2017-Feb-22 08:30 UTC.
Position N 47°05' W 002°60'.

Length 18 m.

Type: Fishing. MMSI: 228239900.

Date/timePositionNaut miles runAvg speedWind from/ knotsBaromVisibWave heightAir tempDewpointWater temp
2017-Feb-22 07:33N 47°05' W 002°60'3 3.1
2017-Feb-22 06:33N 47°03' W 002°57'1 1.2
2017-Feb-22 05:33N 47°02' W 002°58'3 3.2
2017-Feb-22 04:33N 47°05' W 002°60'3 3.2
2017-Feb-22 03:33N 47°08' W 003°03'0 0.2
2017-Feb-22 02:33N 47°08' W 003°03'3 2.7
2017-Feb-22 01:33N 47°08' W 002°59'3 2.9
2017-Feb-22 00:33N 47°05' W 002°58'3 3.0
2017-Feb-21 23:33N 47°02' W 002°58'3 3.2
2017-Feb-21 22:33N 46°59' W 002°56'1 1.4
2017-Feb-21 21:33N 46°58' W 002°54'3 3.1
2017-Feb-21 20:33N 47°01' W 002°56'3 3.1
2017-Feb-21 19:33N 47°04' W 002°59'3 3.4
2017-Feb-21 18:33N 47°07' W 003°01'2 2.4
2017-Feb-21 17:33N 47°08' W 003°04'3 3.1
2017-Feb-21 16:33N 47°05' W 003°02'3 3.1
2017-Feb-21 15:33N 47°02' W 003°00'2 2.5
2017-Feb-21 14:33N 47°00' W 002°58'3 3.2
2017-Feb-21 13:33N 47°03' W 003°00'3 3.2
2017-Feb-21 12:33N 47°06' W 003°02'1 1.0
2017-Feb-21 11:33N 47°06' W 003°03'3 3.1
2017-Feb-21 10:33N 47°04' W 003°00'2 2.4
2017-Feb-21 09:33N 47°02' W 002°58'3 3.1
2017-Feb-21 08:33N 47°05' W 002°59'3 3.1
2017-Feb-21 07:33N 47°08' W 003°02'1 1.4
2017-Feb-21 06:33N 47°07' W 003°00'3 3.2
2017-Feb-21 05:33N 47°04' W 002°58'3 3.0
2017-Feb-21 04:33N 47°01' W 002°55'2 2.4
2017-Feb-21 03:33N 47°03' W 002°58'3 3.1
2017-Feb-21 02:33N 47°05' W 003°01'1 1.0
2017-Feb-21 01:33N 47°05' W 002°59'3 3.1
2017-Feb-21 00:33N 47°03' W 002°57'3 2.9
2017-Feb-20 23:33N 47°00' W 002°55'1 1.4
2017-Feb-20 22:33N 47°02' W 002°55'3 3.1
2017-Feb-20 21:33N 47°04' W 002°58'2 1.8
2017-Feb-20 20:33N 47°06' W 002°60'3 3.0
2017-Feb-20 19:33N 47°03' W 002°58'1 1.2
2017-Feb-20 18:33N 47°02' W 002°58'3 3.1
2017-Feb-20 17:33N 47°04' W 003°00'2 2.4
2017-Feb-20 16:33N 47°06' W 003°03'3 3.1
2017-Feb-20 15:33N 47°03' W 003°02'3 3.1
2017-Feb-20 14:33N 47°01' W 002°59'4 3.1
2017-Feb-20 13:18N 46°58' W 002°55'2 2.6
2017-Feb-20 12:33N 46°60' W 002°55'3 2.9
2017-Feb-20 11:33N 47°02' W 002°57'3 2.7
2017-Feb-20 10:33N 47°04' W 002°54'3 2.7
2017-Feb-20 09:33N 47°06' W 002°50'3 2.8
2017-Feb-20 08:33N 47°08' W 002°49'9 9.1
2017-Feb-20 07:33N 47°14' W 002°39'6 6.5
2017-Feb-20 06:33N 47°18' W 002°31'  
2017-Feb-18 00:32N 47°18' W 002°31'0 0.1
2017-Feb-17 23:33N 47°18' W 002°31'5 4.9
2017-Feb-17 22:33N 47°16' W 002°37'9 9.2
2017-Feb-17 21:32N 47°09' W 002°46'9 4.5
2017-Feb-17 19:33N 47°03' W 002°57'3 3.0
2017-Feb-17 18:33N 47°00' W 002°56'3 3.0
2017-Feb-17 17:34N 46°58' W 002°55'3 2.7
2017-Feb-17 16:33N 47°00' W 002°56'2 1.9
2017-Feb-17 15:33N 46°58' W 002°56'1 1.0
2017-Feb-17 14:33N 46°59' W 002°55'3 2.9
2017-Feb-17 13:33N 47°01' W 002°58'1 0.9
2017-Feb-17 12:33N 47°00' W 002°58'3 3.1
2017-Feb-17 11:33N 46°58' W 002°55'3 2.7
2017-Feb-17 10:33N 47°00' W 002°56'3 3.1
2017-Feb-17 09:33N 47°03' W 002°58'3 3.2
2017-Feb-17 08:33N 47°05' W 003°01'1 0.7
2017-Feb-17 07:33N 47°05' W 003°00'3 3.1
2017-Feb-17 06:33N 47°02' W 002°58'3 3.1
2017-Feb-17 05:33N 46°59' W 002°56'3 3.0
2017-Feb-17 04:33N 46°57' W 002°54'2 2.3
2017-Feb-17 03:32N 46°55' W 002°52'3 2.8
2017-Feb-17 02:33N 46°56' W 002°48'3 2.5
2017-Feb-17 01:33N 46°56' W 002°52'2 1.8
2017-Feb-17 00:33N 46°56' W 002°49'1 0.7
2017-Feb-16 22:33N 46°55' W 002°51'2 2.0
2017-Feb-16 21:27N 46°57' W 002°49'2 2.5
2017-Feb-16 20:33N 46°56' W 002°52'1 1.0
2017-Feb-16 19:33N 46°55' W 002°54'3 3.4
2017-Feb-16 18:33N 46°58' W 002°56'3 2.9
2017-Feb-16 17:33N 47°01' W 002°57'3 3.2
2017-Feb-16 16:33N 47°04' W 002°60'2 2.3
2017-Feb-16 15:30N 47°03' W 002°57'3 3.2
2017-Feb-16 14:33N 46°60' W 002°55'5 2.7
2017-Feb-16 12:33N 46°55' W 002°53'3 2.9
2017-Feb-16 11:33N 46°57' W 002°55'3 2.9
2017-Feb-16 10:33N 47°00' W 002°56'3 3.1
2017-Feb-16 09:33N 47°03' W 002°58'3 3.2
2017-Feb-16 08:33N 47°06' W 003°00'3 2.9
2017-Feb-16 07:33N 47°08' W 003°03'3 3.0
2017-Feb-16 06:33N 47°05' W 003°01'2 1.8
2017-Feb-16 05:33N 47°03' W 002°60'3 3.1
2017-Feb-16 04:33N 47°06' W 003°02'3 2.8
2017-Feb-16 03:33N 47°09' W 003°03'3 2.7
2017-Feb-16 02:33N 47°11' W 003°01'3 2.7
2017-Feb-16 01:33N 47°13' W 002°59'2 1.9
2017-Feb-16 00:33N 47°14' W 002°56'2 2.1
2017-Feb-15 23:30N 47°12' W 002°58'1 1.4
2017-Feb-15 22:33N 47°13' W 002°58'3 3.2
2017-Feb-15 21:33N 47°15' W 002°54'6 6.1
2017-Feb-15 20:33N 47°17' W 002°46'10 9.5
2017-Feb-15 19:33N 47°19' W 002°32'1 1.1
2017-Feb-15 18:27N 47°18' W 002°31'4 4.5
2017-Feb-15 17:33N 47°19' W 002°37'1010.2
2017-Feb-15 16:33N 47°15' W 002°51'5 5.4
2017-Feb-15 15:33N 47°13' W 002°58'3 3.3
2017-Feb-15 14:33N 47°10' W 003°01'3 3.4
2017-Feb-15 13:33N 47°08' W 003°04'4 3.5
2017-Feb-15 12:30N 47°04' W 003°02'3 3.4
2017-Feb-15 11:33N 47°02' W 002°59'1 0.9
2017-Feb-15 10:33N 47°02' W 002°60'3 3.0
2017-Feb-15 09:33N 47°05' W 003°02'1 0.9
2017-Feb-15 08:33N 47°06' W 003°02'3 3.0
2017-Feb-15 07:33N 47°03' W 002°60'3 3.0
2017-Feb-15 06:33N 47°01' W 002°57'3 2.9
2017-Feb-15 05:33N 46°59' W 002°54'3 1.4
2017-Feb-15 03:27N 46°56' W 002°52'3 3.1
2017-Feb-15 02:33N 46°57' W 002°56'1 1.5
2017-Feb-15 01:33N 46°58' W 002°54'1 0.7
2017-Feb-14 23:27N 46°57' W 002°53'2 2.8
2017-Feb-14 22:33N 46°59' W 002°55'3 2.9
2017-Feb-14 21:30N 47°02' W 002°57'3 3.0
2017-Feb-14 20:33N 47°04' W 002°58'3 2.9
2017-Feb-14 19:33N 47°07' W 002°60'2 1.6
2017-Feb-14 18:33N 47°09' W 002°59'3 2.9
2017-Feb-14 17:33N 47°06' W 002°56'3 2.9
2017-Feb-14 16:33N 47°04' W 002°54'2 1.7
2017-Feb-14 15:33N 47°03' W 002°51'2 2.2
2017-Feb-14 14:33N 47°05' W 002°50'3 2.8
2017-Feb-14 13:33N 47°06' W 002°54'3 3.0
2017-Feb-14 12:33N 47°05' W 002°58'3 2.6
2017-Feb-14 11:33N 47°03' W 003°00'3 3.0
2017-Feb-14 10:33N 47°00' W 003°00'1 1.2
2017-Feb-14 09:30N 46°59' W 003°02'3 3.1
2017-Feb-14 08:30N 47°03' W 003°02'3 3.4
2017-Feb-14 07:33N 47°06' W 003°02'2 1.7
2017-Feb-14 06:33N 47°07' W 003°01'3 2.9
2017-Feb-14 05:33N 47°05' W 002°58'3 2.9
2017-Feb-14 04:33N 47°02' W 002°56'1 1.0
2017-Feb-14 03:33N 47°03' W 002°57'2 2.2
2017-Feb-14 02:33N 47°04' W 002°54'3 2.8
2017-Feb-14 01:33N 47°02' W 002°52'5 0.9
2017-Feb-13 20:21N 46°60' W 002°46'3 4.1
2017-Feb-13 19:33N 47°03' W 002°44'10 9.9
2017-Feb-13 18:33N 47°12' W 002°38'8 3.3
2017-Feb-13 16:08N 47°18' W 002°31'0 0.0
2017-Feb-13 15:33N 47°18' W 002°31'3 2.8
2017-Feb-13 14:33N 47°18' W 002°35'10 9.7
2017-Feb-13 13:33N 47°11' W 002°44'6 6.0
2017-Feb-13 12:33N 47°06' W 002°49'3 2.8
2017-Feb-13 11:33N 47°03' W 002°52'3 2.3
2017-Feb-13 10:15N 47°01' W 002°55'2 2.3
2017-Feb-13 09:15N 46°60' W 002°57'1 1.8
2017-Feb-13 08:30N 47°01' W 002°59'2 2.1
2017-Feb-13 07:30N 47°03' W 002°59'2 2.6
2017-Feb-13 06:33N 47°05' W 003°01'1 1.0
2017-Feb-13 05:33N 47°04' W 003°02'3 3.1
2017-Feb-13 04:33N 47°01' W 002°60'3 2.7
2017-Feb-13 03:33N 47°01' W 002°56'2 2.3
2017-Feb-13 02:33N 47°02' W 002°53'2 2.3
2017-Feb-13 01:30N 47°00' W 002°51'4 1.8
2017-Feb-12 23:24N 46°57' W 002°54'2 1.8
2017-Feb-12 22:33N 46°58' W 002°56'2 2.0
2017-Feb-12 21:33N 46°59' W 002°54'4 1.6
2017-Feb-12 19:15N 46°56' W 002°52'2 2.2
2017-Feb-12 18:09N 46°57' W 002°55'2 2.5
2017-Feb-12 17:33N 46°58' W 002°56'3 3.0
2017-Feb-12 16:33N 47°01' W 002°57'3 3.0
2017-Feb-12 15:33N 47°04' W 002°59'1 1.0
2017-Feb-12 14:33N 47°04' W 002°58'2 1.8
2017-Feb-12 13:33N 47°03' W 002°59'3 2.7
2017-Feb-12 12:33N 47°05' W 003°00'3 2.7
2017-Feb-12 11:33N 47°08' W 003°02'1 1.1
2017-Feb-12 10:30N 47°07' W 003°00'3 2.7
2017-Feb-12 09:30N 47°05' W 002°60'2 2.2
2017-Feb-12 08:33N 47°03' W 002°59'3 2.7
2017-Feb-12 07:33N 47°00' W 002°56'  
Track history (hours):
 
Tides and Currents Weather Stations Pressure Air Temp Water Temp Dewpoint Dewpoint Depression Visibility Wind Speed Wind Dir Waves Ship Positions

F/V Moorea

Last reported at 2017-Feb-22 07:33 UTC. Time now 2017-Feb-22 08:30 UTC.
Position N 47°05' W 002°60'.

Length 18 m.

Type: Fishing. MMSI: 228239900.

Date/timePositionNaut miles runAvg speedWind from/ knotsBaromVisibWave heightAir tempDewpointWater temp
2017-Feb-22 07:33N 47°05' W 002°60'3 3.1
2017-Feb-22 06:33N 47°03' W 002°57'1 1.2
2017-Feb-22 05:33N 47°02' W 002°58'3 3.2
2017-Feb-22 04:33N 47°05' W 002°60'3 3.2
2017-Feb-22 03:33N 47°08' W 003°03'0 0.2
2017-Feb-22 02:33N 47°08' W 003°03'3 2.7
2017-Feb-22 01:33N 47°08' W 002°59'3 2.9
2017-Feb-22 00:33N 47°05' W 002°58'3 3.0
2017-Feb-21 23:33N 47°02' W 002°58'3 3.2
2017-Feb-21 22:33N 46°59' W 002°56'1 1.4
2017-Feb-21 21:33N 46°58' W 002°54'3 3.1
2017-Feb-21 20:33N 47°01' W 002°56'3 3.1
2017-Feb-21 19:33N 47°04' W 002°59'3 3.4
2017-Feb-21 18:33N 47°07' W 003°01'2 2.4
2017-Feb-21 17:33N 47°08' W 003°04'3 3.1
2017-Feb-21 16:33N 47°05' W 003°02'3 3.1
2017-Feb-21 15:33N 47°02' W 003°00'2 2.5
2017-Feb-21 14:33N 47°00' W 002°58'3 3.2
2017-Feb-21 13:33N 47°03' W 003°00'3 3.2
2017-Feb-21 12:33N 47°06' W 003°02'1 1.0
2017-Feb-21 11:33N 47°06' W 003°03'3 3.1
2017-Feb-21 10:33N 47°04' W 003°00'2 2.4
2017-Feb-21 09:33N 47°02' W 002°58'3 3.1
2017-Feb-21 08:33N 47°05' W 002°59'3 3.1
2017-Feb-21 07:33N 47°08' W 003°02'1 1.4
2017-Feb-21 06:33N 47°07' W 003°00'3 3.2
2017-Feb-21 05:33N 47°04' W 002°58'3 3.0
2017-Feb-21 04:33N 47°01' W 002°55'2 2.4
2017-Feb-21 03:33N 47°03' W 002°58'3 3.1
2017-Feb-21 02:33N 47°05' W 003°01'1 1.0
2017-Feb-21 01:33N 47°05' W 002°59'3 3.1
2017-Feb-21 00:33N 47°03' W 002°57'3 2.9
2017-Feb-20 23:33N 47°00' W 002°55'1 1.4
2017-Feb-20 22:33N 47°02' W 002°55'3 3.1
2017-Feb-20 21:33N 47°04' W 002°58'2 1.8
2017-Feb-20 20:33N 47°06' W 002°60'3 3.0
2017-Feb-20 19:33N 47°03' W 002°58'1 1.2
2017-Feb-20 18:33N 47°02' W 002°58'3 3.1
2017-Feb-20 17:33N 47°04' W 003°00'2 2.4
2017-Feb-20 16:33N 47°06' W 003°03'3 3.1
2017-Feb-20 15:33N 47°03' W 003°02'3 3.1
2017-Feb-20 14:33N 47°01' W 002°59'4 3.1
2017-Feb-20 13:18N 46°58' W 002°55'2 2.6
2017-Feb-20 12:33N 46°60' W 002°55'3 2.9
2017-Feb-20 11:33N 47°02' W 002°57'3 2.7
2017-Feb-20 10:33N 47°04' W 002°54'3 2.7
2017-Feb-20 09:33N 47°06' W 002°50'3 2.8
2017-Feb-20 08:33N 47°08' W 002°49'9 9.1
2017-Feb-20 07:33N 47°14' W 002°39'6 6.5
2017-Feb-20 06:33N 47°18' W 002°31'  
2017-Feb-18 00:32N 47°18' W 002°31'0 0.1
2017-Feb-17 23:33N 47°18' W 002°31'5 4.9
2017-Feb-17 22:33N 47°16' W 002°37'9 9.2
2017-Feb-17 21:32N 47°09' W 002°46'9 4.5
2017-Feb-17 19:33N 47°03' W 002°57'3 3.0
2017-Feb-17 18:33N 47°00' W 002°56'3 3.0
2017-Feb-17 17:34N 46°58' W 002°55'3 2.7
2017-Feb-17 16:33N 47°00' W 002°56'2 1.9
2017-Feb-17 15:33N 46°58' W 002°56'1 1.0
2017-Feb-17 14:33N 46°59' W 002°55'3 2.9
2017-Feb-17 13:33N 47°01' W 002°58'1 0.9
2017-Feb-17 12:33N 47°00' W 002°58'3 3.1
2017-Feb-17 11:33N 46°58' W 002°55'3 2.7
2017-Feb-17 10:33N 47°00' W 002°56'3 3.1
2017-Feb-17 09:33N 47°03' W 002°58'3 3.2
2017-Feb-17 08:33N 47°05' W 003°01'1 0.7
2017-Feb-17 07:33N 47°05' W 003°00'3 3.1
2017-Feb-17 06:33N 47°02' W 002°58'3 3.1
2017-Feb-17 05:33N 46°59' W 002°56'3 3.0
2017-Feb-17 04:33N 46°57' W 002°54'2 2.3
2017-Feb-17 03:32N 46°55' W 002°52'3 2.8
2017-Feb-17 02:33N 46°56' W 002°48'3 2.5
2017-Feb-17 01:33N 46°56' W 002°52'2 1.8
2017-Feb-17 00:33N 46°56' W 002°49'1 0.7
2017-Feb-16 22:33N 46°55' W 002°51'2 2.0
2017-Feb-16 21:27N 46°57' W 002°49'2 2.5
2017-Feb-16 20:33N 46°56' W 002°52'1 1.0
2017-Feb-16 19:33N 46°55' W 002°54'3 3.4
2017-Feb-16 18:33N 46°58' W 002°56'3 2.9
2017-Feb-16 17:33N 47°01' W 002°57'3 3.2
2017-Feb-16 16:33N 47°04' W 002°60'2 2.3
2017-Feb-16 15:30N 47°03' W 002°57'3 3.2
2017-Feb-16 14:33N 46°60' W 002°55'5 2.7
2017-Feb-16 12:33N 46°55' W 002°53'3 2.9
2017-Feb-16 11:33N 46°57' W 002°55'3 2.9
2017-Feb-16 10:33N 47°00' W 002°56'3 3.1
2017-Feb-16 09:33N 47°03' W 002°58'3 3.2
2017-Feb-16 08:33N 47°06' W 003°00'3 2.9
2017-Feb-16 07:33N 47°08' W 003°03'3 3.0
2017-Feb-16 06:33N 47°05' W 003°01'2 1.8
2017-Feb-16 05:33N 47°03' W 002°60'3 3.1
2017-Feb-16 04:33N 47°06' W 003°02'3 2.8
2017-Feb-16 03:33N 47°09' W 003°03'3 2.7
2017-Feb-16 02:33N 47°11' W 003°01'3 2.7
2017-Feb-16 01:33N 47°13' W 002°59'2 1.9
2017-Feb-16 00:33N 47°14' W 002°56'2 2.1
2017-Feb-15 23:30N 47°12' W 002°58'1 1.4
2017-Feb-15 22:33N 47°13' W 002°58'3 3.2
2017-Feb-15 21:33N 47°15' W 002°54'6 6.1
2017-Feb-15 20:33N 47°17' W 002°46'10 9.5
2017-Feb-15 19:33N 47°19' W 002°32'1 1.1
2017-Feb-15 18:27N 47°18' W 002°31'4 4.5
2017-Feb-15 17:33N 47°19' W 002°37'1010.2
2017-Feb-15 16:33N 47°15' W 002°51'5 5.4
2017-Feb-15 15:33N 47°13' W 002°58'3 3.3
2017-Feb-15 14:33N 47°10' W 003°01'3 3.4
2017-Feb-15 13:33N 47°08' W 003°04'4 3.5
2017-Feb-15 12:30N 47°04' W 003°02'3 3.4
2017-Feb-15 11:33N 47°02' W 002°59'1 0.9
2017-Feb-15 10:33N 47°02' W 002°60'3 3.0
2017-Feb-15 09:33N 47°05' W 003°02'1 0.9
2017-Feb-15 08:33N 47°06' W 003°02'3 3.0
2017-Feb-15 07:33N 47°03' W 002°60'3 3.0
2017-Feb-15 06:33N 47°01' W 002°57'3 2.9
2017-Feb-15 05:33N 46°59' W 002°54'3 1.4
2017-Feb-15 03:27N 46°56' W 002°52'3 3.1
2017-Feb-15 02:33N 46°57' W 002°56'1 1.5
2017-Feb-15 01:33N 46°58' W 002°54'1 0.7
2017-Feb-14 23:27N 46°57' W 002°53'2 2.8
2017-Feb-14 22:33N 46°59' W 002°55'3 2.9
2017-Feb-14 21:30N 47°02' W 002°57'3 3.0
2017-Feb-14 20:33N 47°04' W 002°58'3 2.9
2017-Feb-14 19:33N 47°07' W 002°60'2 1.6
2017-Feb-14 18:33N 47°09' W 002°59'3 2.9
2017-Feb-14 17:33N 47°06' W 002°56'3 2.9
2017-Feb-14 16:33N 47°04' W 002°54'2 1.7
2017-Feb-14 15:33N 47°03' W 002°51'2 2.2
2017-Feb-14 14:33N 47°05' W 002°50'3 2.8
2017-Feb-14 13:33N 47°06' W 002°54'3 3.0
2017-Feb-14 12:33N 47°05' W 002°58'3 2.6
2017-Feb-14 11:33N 47°03' W 003°00'3 3.0
2017-Feb-14 10:33N 47°00' W 003°00'1 1.2
2017-Feb-14 09:30N 46°59' W 003°02'3 3.1
2017-Feb-14 08:30N 47°03' W 003°02'3 3.4
2017-Feb-14 07:33N 47°06' W 003°02'2 1.7
2017-Feb-14 06:33N 47°07' W 003°01'3 2.9
2017-Feb-14 05:33N 47°05' W 002°58'3 2.9
2017-Feb-14 04:33N 47°02' W 002°56'1 1.0
2017-Feb-14 03:33N 47°03' W 002°57'2 2.2
2017-Feb-14 02:33N 47°04' W 002°54'3 2.8
2017-Feb-14 01:33N 47°02' W 002°52'5 0.9
2017-Feb-13 20:21N 46°60' W 002°46'3 4.1
2017-Feb-13 19:33N 47°03' W 002°44'10 9.9
2017-Feb-13 18:33N 47°12' W 002°38'8 3.3
2017-Feb-13 16:08N 47°18' W 002°31'0 0.0
2017-Feb-13 15:33N 47°18' W 002°31'3 2.8
2017-Feb-13 14:33N 47°18' W 002°35'10 9.7
2017-Feb-13 13:33N 47°11' W 002°44'6 6.0
2017-Feb-13 12:33N 47°06' W 002°49'3 2.8
2017-Feb-13 11:33N 47°03' W 002°52'3 2.3
2017-Feb-13 10:15N 47°01' W 002°55'2 2.3
2017-Feb-13 09:15N 46°60' W 002°57'1 1.8
2017-Feb-13 08:30N 47°01' W 002°59'2 2.1
2017-Feb-13 07:30N 47°03' W 002°59'2 2.6
2017-Feb-13 06:33N 47°05' W 003°01'1 1.0
2017-Feb-13 05:33N 47°04' W 003°02'3 3.1
2017-Feb-13 04:33N 47°01' W 002°60'3 2.7
2017-Feb-13 03:33N 47°01' W 002°56'2 2.3
2017-Feb-13 02:33N 47°02' W 002°53'2 2.3
2017-Feb-13 01:30N 47°00' W 002°51'4 1.8
2017-Feb-12 23:24N 46°57' W 002°54'2 1.8
2017-Feb-12 22:33N 46°58' W 002°56'2 2.0
2017-Feb-12 21:33N 46°59' W 002°54'4 1.6
2017-Feb-12 19:15N 46°56' W 002°52'2 2.2
2017-Feb-12 18:09N 46°57' W 002°55'2 2.5
2017-Feb-12 17:33N 46°58' W 002°56'3 3.0
2017-Feb-12 16:33N 47°01' W 002°57'3 3.0
2017-Feb-12 15:33N 47°04' W 002°59'1 1.0
2017-Feb-12 14:33N 47°04' W 002°58'2 1.8
2017-Feb-12 13:33N 47°03' W 002°59'3 2.7
2017-Feb-12 12:33N 47°05' W 003°00'3 2.7
2017-Feb-12 11:33N 47°08' W 003°02'1 1.1
2017-Feb-12 10:30N 47°07' W 003°00'3 2.7
2017-Feb-12 09:30N 47°05' W 002°60'2 2.2
2017-Feb-12 08:33N 47°03' W 002°59'3 2.7
2017-Feb-12 07:33N 47°00' W 002°56'  

Dump ship's entire track history